Prosser, Nebraska
Current Conditions -  °F | °C
As of 2:53 AM on Monday 22 Dec 2014 (Local Time) from KHSI Reporting Station
Haze Haze  
Wind Chill: 37°   Ceiling: 600
Heat Index: 42°   Visibility: 6mi
Dew Point: 39°   Wind: 8mph
Humidity: 89%   Direction: 190°S
Pressure: 29.5"   Gusts: NA
Location:  40.8074°N, 98.6117°W
Report Text: KHSI 220853Z AUTO 19007KT 6SM BR OVC006 06/04 A2950 RMK AO2 SLP998 T00560039 56008
Loading
Personal Weather Stations






























Interactive Weather Map New forecast layout! Learn more

10-Day Weather Forecast

Advertisements
Track Severe Weather on mobile